Time;durP1;ratioP1;P1;durP2;ratioP2;P2;SDS_P1;SDS_P2;PMS_P1;PMS_P2;Temp;Humidity;BMP_temperature;BMP_pressure;BME280_temperature;BME280_humidity;BME280_pressure;Samples;Min_cycle;Max_cycle;Signal;HPM_P1;HPM_P2
2024/03/02 00:00:13;;;;;;;3.33;0.60;;;7.60;99.90;;;;;;7278597;19;20181;-80
2024/03/02 00:02:44;;;;;;;2.87;0.67;;;7.60;99.90;;;;;;7284164;19;20663;-79
2024/03/02 00:05:18;;;;;;;1.80;0.70;;;7.40;99.90;;;;;;7283229;19;20189;-79
2024/03/02 00:07:46;;;;;;;1.80;0.70;;;7.40;99.90;;;;;;7285782;19;20285;-79
2024/03/02 00:10:19;;;;;;;0.60;0.40;;;7.30;99.90;;;;;;7285191;19;20559;-79
2024/03/02 00:12:47;;;;;;;1.47;0.70;;;7.30;99.90;;;;;;7283677;19;20184;-80
2024/03/02 00:15:41;;;;;;;1.97;0.67;;;7.40;99.90;;;;;;7285445;19;20683;-79
2024/03/02 00:18:08;;;;;;;1.93;0.60;;;7.40;99.90;;;;;;7180561;19;2004547;-79
2024/03/02 00:20:34;;;;;;;1.47;0.40;;;7.40;99.90;;;;;;7286667;19;20518;-79
2024/03/02 00:23:07;;;;;;;1.17;0.60;;;7.40;99.90;;;;;;7292710;19;20200;-80
2024/03/02 00:25:43;;;;;;;1.87;0.60;;;7.50;99.90;;;;;;7293293;19;20216;-78
2024/03/02 00:28:24;;;;;;;2.50;0.50;;;7.50;99.90;;;;;;7290430;19;20219;-79
2024/03/02 00:30:57;;;;;;;1.20;0.60;;;7.40;99.90;;;;;;7181993;19;2004647;-79
2024/03/02 00:33:23;;;;;;;1.57;0.50;;;7.30;99.90;;;;;;7284143;19;20207;-78
2024/03/02 00:35:49;;;;;;;2.50;0.70;;;7.20;99.90;;;;;;7283441;19;20198;-79
2024/03/02 00:38:15;;;;;;;1.43;0.73;;;7.30;99.90;;;;;;7302831;19;20301;-80
2024/03/02 00:40:42;;;;;;;2.17;0.80;;;7.30;99.90;;;;;;7281465;19;20192;-80
2024/03/02 00:43:23;;;;;;;2.80;0.80;;;7.30;99.90;;;;;;7281413;19;20186;-78
2024/03/02 00:45:49;;;;;;;3.87;0.80;;;7.40;99.90;;;;;;7259740;19;20195;-78
2024/03/02 00:48:16;;;;;;;0.80;0.60;;;7.40;99.90;;;;;;7304497;19;20204;-79
2024/03/02 00:50:42;;;;;;;2.20;0.70;;;7.40;99.90;;;;;;7283035;19;20188;-78
2024/03/02 00:53:12;;;;;;;1.50;0.70;;;7.40;99.90;;;;;;7282344;19;20185;-78
2024/03/02 00:55:38;;;;;;;0.73;0.40;;;7.30;99.90;;;;;;7283832;19;20563;-78
2024/03/02 00:58:03;;;;;;;2.37;0.70;;;7.30;99.90;;;;;;7282955;19;20193;-77
2024/03/02 01:00:29;;;;;;;3.33;0.70;;;7.30;99.90;;;;;;7283505;19;20256;-78
2024/03/02 01:02:55;;;;;;;1.77;0.57;;;7.50;99.90;;;;;;7282389;19;20583;-79
2024/03/02 01:05:20;;;;;;;2.00;0.60;;;7.50;99.90;;;;;;7283002;19;20197;-78
2024/03/02 01:07:46;;;;;;;3.07;0.53;;;7.50;99.90;;;;;;7304160;19;20179;-78
2024/03/02 01:10:12;;;;;;;1.63;0.60;;;7.60;99.90;;;;;;7284819;19;20287;-78
2024/03/02 01:12:38;;;;;;;1.03;0.40;;;7.70;99.90;;;;;;7288887;19;20637;-79
2024/03/02 01:15:07;;;;;;;2.20;0.57;;;7.50;99.90;;;;;;7289794;19;20205;-79
2024/03/02 01:17:33;;;;;;;2.40;0.60;;;7.40;99.90;;;;;;7289011;19;20197;-78
2024/03/02 01:19:59;;;;;;;1.10;0.57;;;7.40;99.90;;;;;;7287685;19;20188;-78
2024/03/02 01:22:25;;;;;;;1.37;0.50;;;7.50;99.90;;;;;;7287228;19;20260;-78
2024/03/02 01:24:51;;;;;;;1.70;0.50;;;7.50;99.90;;;;;;7286177;19;20193;-78
2024/03/02 01:27:17;;;;;;;1.57;0.50;;;7.50;99.90;;;;;;7301249;19;20181;-77
2024/03/02 01:29:43;;;;;;;2.30;0.50;;;7.40;99.90;;;;;;7300792;19;20215;-79
2024/03/02 01:32:08;;;;;;;2.47;0.57;;;7.40;99.90;;;;;;7288065;19;20675;-79
2024/03/02 01:34:34;;;;;;;1.77;0.70;;;7.40;99.90;;;;;;7288351;19;20704;-78
2024/03/02 01:37:00;;;;;;;1.10;0.50;;;7.30;99.90;;;;;;7288296;19;20193;-79
2024/03/02 01:39:25;;;;;;;2.20;0.50;;;7.40;99.90;;;;;;7288103;19;20201;-79
2024/03/02 01:41:51;;;;;;;4.27;0.70;;;7.40;99.90;;;;;;7293605;19;20189;-78
2024/03/02 01:44:17;;;;;;;3.83;0.70;;;7.50;99.90;;;;;;7310100;19;20821;-77
2024/03/02 01:46:43;;;;;;;2.57;0.70;;;7.50;99.90;;;;;;7289277;19;20188;-79
2024/03/02 01:49:08;;;;;;;1.07;0.40;;;7.60;99.90;;;;;;7287884;19;20699;-79
2024/03/02 01:51:34;;;;;;;4.03;0.80;;;7.60;99.90;;;;;;7284952;19;20196;-79
2024/03/02 01:54:00;;;;;;;1.53;0.53;;;7.60;99.90;;;;;;7286879;19;20213;-79
2024/03/02 01:56:26;;;;;;;3.27;0.73;;;7.70;99.90;;;;;;7283539;19;20297;-78
2024/03/02 01:58:51;;;;;;;2.80;0.50;;;7.60;99.90;;;;;;7284518;19;20305;-78
2024/03/02 02:01:17;;;;;;;2.43;0.67;;;7.70;99.90;;;;;;7301347;19;20288;-78
2024/03/02 02:03:44;;;;;;;4.47;0.60;;;7.70;99.90;;;;;;7297867;19;20192;-79
2024/03/02 02:06:10;;;;;;;0.77;0.40;;;7.70;99.90;;;;;;7284576;19;20260;-79
2024/03/02 02:08:37;;;;;;;2.80;0.60;;;7.70;99.90;;;;;;7286150;19;20282;-79
2024/03/02 02:11:03;;;;;;;2.70;1.03;;;7.80;99.90;;;;;;7283723;19;20185;-79
2024/03/02 02:13:29;;;;;;;4.73;0.70;;;7.80;99.90;;;;;;7284343;19;20199;-78
2024/03/02 02:15:54;;;;;;;1.00;0.40;;;7.70;99.90;;;;;;7285355;19;20567;-79
2024/03/02 02:18:20;;;;;;;1.77;0.67;;;7.70;99.90;;;;;;7283247;19;20185;-79
2024/03/02 02:20:46;;;;;;;2.43;0.60;;;7.70;99.90;;;;;;7304647;19;20193;-79
2024/03/02 02:23:13;;;;;;;2.20;0.50;;;7.70;99.90;;;;;;7286646;19;20674;-79
2024/03/02 02:25:39;;;;;;;2.20;0.60;;;7.70;99.90;;;;;;7287395;19;21160;-79
2024/03/02 02:28:05;;;;;;;2.83;0.73;;;7.70;99.90;;;;;;7286975;19;20672;-79
2024/03/02 02:30:32;;;;;;;3.33;0.90;;;7.70;99.90;;;;;;7286080;19;20189;-79
2024/03/02 02:32:58;;;;;;;2.53;0.90;;;7.70;99.90;;;;;;7286667;19;20193;-79
2024/03/02 02:35:24;;;;;;;3.00;1.10;;;7.60;99.90;;;;;;7285260;19;20196;-79
2024/03/02 02:37:51;;;;;;;2.57;0.80;;;7.50;99.90;;;;;;7286970;19;20212;-79
2024/03/02 02:40:18;;;;;;;4.57;1.00;;;7.50;99.90;;;;;;7303774;19;20189;-77
2024/03/02 02:42:44;;;;;;;2.00;1.00;;;7.40;99.90;;;;;;7308300;19;20189;-79
2024/03/02 02:45:13;;;;;;;4.63;1.07;;;7.40;99.90;;;;;;7285411;19;20188;-79
2024/03/02 02:47:38;;;;;;;4.17;1.10;;;7.40;99.90;;;;;;7283848;19;20544;-79
2024/03/02 02:50:06;;;;;;;1.83;0.70;;;7.30;99.90;;;;;;7287117;19;20249;-79
2024/03/02 02:52:36;;;;;;;4.60;0.93;;;7.20;99.90;;;;;;7284140;19;20189;-79
2024/03/02 02:55:07;;;;;;;3.13;0.80;;;7.20;99.90;;;;;;7285009;19;20189;-78
2024/03/02 02:57:37;;;;;;;0.93;0.50;;;7.10;99.90;;;;;;7286852;19;20193;-79
2024/03/02 03:00:09;;;;;;;6.17;0.87;;;7.20;99.90;;;;;;7284496;19;20193;-79
2024/03/02 03:02:37;;;;;;;4.13;0.87;;;7.00;99.90;;;;;;7286610;19;20196;-80
2024/03/02 03:05:03;;;;;;;3.30;0.60;;;7.20;99.90;;;;;;7285557;19;20188;-79
2024/03/02 03:07:29;;;;;;;5.57;0.90;;;7.10;99.90;;;;;;7285564;19;20189;-79
2024/03/02 03:09:54;;;;;;;2.93;0.80;;;7.10;99.90;;;;;;7284923;19;20707;-79
2024/03/02 03:12:20;;;;;;;4.17;0.60;;;7.10;99.90;;;;;;7283121;19;20189;-80
2024/03/02 03:14:46;;;;;;;5.40;1.00;;;7.20;99.90;;;;;;7308639;19;20219;-80
2024/03/02 03:17:12;;;;;;;5.60;0.70;;;7.20;99.90;;;;;;7287568;19;20197;-79
2024/03/02 03:19:38;;;;;;;4.47;1.00;;;7.20;99.90;;;;;;7285173;19;20226;-80
2024/03/02 03:22:04;;;;;;;4.63;0.73;;;7.30;99.90;;;;;;7287735;19;20188;-79
2024/03/02 03:24:30;;;;;;;4.73;0.87;;;7.30;99.90;;;;;;7304607;19;20256;-79
2024/03/02 03:26:55;;;;;;;3.80;0.83;;;7.30;99.90;;;;;;7292848;19;20211;-79
2024/03/02 03:29:21;;;;;;;5.50;0.80;;;7.30;99.90;;;;;;7288122;19;20222;-79
2024/03/02 03:31:47;;;;;;;2.57;0.80;;;7.40;99.90;;;;;;7307168;19;20268;-77
2024/03/02 03:34:15;;;;;;;3.63;0.90;;;7.50;99.90;;;;;;7291122;19;20236;-79
2024/03/02 03:36:42;;;;;;;3.20;0.80;;;7.60;99.90;;;;;;7285253;19;20193;-78
2024/03/02 03:39:07;;;;;;;2.90;0.90;;;7.70;99.90;;;;;;7285268;19;20210;-80
2024/03/02 03:41:33;;;;;;;3.60;0.90;;;7.70;99.90;;;;;;7286386;19;20208;-79
2024/03/02 03:43:59;;;;;;;5.10;0.80;;;7.80;99.90;;;;;;7283777;19;20189;-78
2024/03/02 03:46:24;;;;;;;1.70;0.70;;;7.80;99.90;;;;;;7284626;19;20301;-78
2024/03/02 03:48:50;;;;;;;2.53;0.80;;;7.80;99.90;;;;;;7283698;19;20660;-78
2024/03/02 03:51:16;;;;;;;3.10;0.70;;;7.80;99.90;;;;;;7305857;19;20197;-79
2024/03/02 03:53:41;;;;;;;3.50;0.70;;;7.80;99.90;;;;;;7283879;19;20198;-78
2024/03/02 03:56:07;;;;;;;3.70;0.80;;;7.90;99.90;;;;;;7284057;19;20670;-78
2024/03/02 03:58:33;;;;;;;4.13;0.90;;;7.90;99.90;;;;;;7283804;19;20227;-79
2024/03/02 04:00:58;;;;;;;2.20;0.80;;;7.80;99.90;;;;;;7282564;19;20185;-79
2024/03/02 04:03:25;;;;;;;3.93;0.97;;;7.80;99.90;;;;;;7282724;19;20192;-79
2024/03/02 04:05:51;;;;;;;3.53;0.87;;;7.70;99.90;;;;;;7286666;19;20204;-78
2024/03/02 04:08:16;;;;;;;2.60;0.60;;;7.80;99.90;;;;;;7306366;19;20595;-78
2024/03/02 04:10:42;;;;;;;6.90;0.97;;;7.80;99.90;;;;;;7284164;19;20184;-78
2024/03/02 04:13:08;;;;;;;5.40;0.90;;;7.70;99.90;;;;;;7284529;19;20186;-79
2024/03/02 04:15:34;;;;;;;4.63;0.80;;;7.70;99.90;;;;;;7283001;19;20208;-78
2024/03/02 04:17:59;;;;;;;4.97;0.77;;;7.70;99.90;;;;;;7284245;19;20661;-79
2024/03/02 04:20:25;;;;;;;3.77;0.97;;;7.70;99.90;;;;;;7282887;19;20215;-78
2024/03/02 04:22:51;;;;;;;3.10;0.90;;;7.60;99.90;;;;;;7283528;19;20189;-78
2024/03/02 04:25:16;;;;;;;5.97;0.70;;;7.80;99.90;;;;;;7306251;19;20187;-79
2024/03/02 04:27:42;;;;;;;5.07;1.03;;;7.80;99.90;;;;;;7283129;19;20192;-78
2024/03/02 04:30:08;;;;;;;5.33;0.80;;;7.80;99.90;;;;;;7282630;19;20710;-79
2024/03/02 04:32:35;;;;;;;3.37;0.70;;;7.80;99.90;;;;;;7281698;19;20197;-79
2024/03/02 04:35:01;;;;;;;3.43;0.77;;;8.00;99.90;;;;;;7280700;19;20204;-78
2024/03/02 04:37:27;;;;;;;3.70;0.80;;;8.10;99.90;;;;;;7282369;19;20189;-78
2024/03/02 04:39:53;;;;;;;3.70;0.70;;;8.10;99.90;;;;;;7281615;19;20246;-78
2024/03/02 04:42:19;;;;;;;3.60;0.60;;;7.80;99.90;;;;;;7282084;19;20557;-78
2024/03/02 04:44:45;;;;;;;5.18;1.10;;;7.60;99.90;;;;;;7304912;19;20704;-78
2024/03/02 04:47:10;;;;;;;4.87;0.90;;;7.50;99.90;;;;;;7289450;19;20190;-78
2024/03/02 04:49:36;;;;;;;4.53;0.80;;;7.40;99.90;;;;;;7285436;19;20197;-79
2024/03/02 04:52:02;;;;;;;3.67;0.97;;;7.40;99.90;;;;;;7289333;19;20230;-79
2024/03/02 04:54:28;;;;;;;7.37;0.97;;;7.40;99.90;;;;;;7288773;19;20193;-79
2024/03/02 04:56:54;;;;;;;2.83;0.60;;;7.40;99.90;;;;;;7291214;19;20663;-79
2024/03/02 04:59:20;;;;;;;4.47;0.80;;;7.30;99.90;;;;;;7287554;19;20192;-79
2024/03/02 05:01:47;;;;;;;6.10;1.00;;;7.30;99.90;;;;;;7312966;19;20184;-79
2024/03/02 05:04:12;;;;;;;7.37;1.00;;;7.30;99.90;;;;;;7290110;19;20207;-80
2024/03/02 05:06:42;;;;;;;9.27;1.00;;;7.20;99.90;;;;;;7289563;19;20633;-79
2024/03/02 05:09:08;;;;;;;3.50;0.70;;;7.10;99.90;;;;;;7289579;19;20727;-79
2024/03/02 05:14:06;;;;;;;4.57;0.90;;;6.90;99.90;;;;;;7289233;19;20196;-79
2024/03/02 05:16:41;;;;;;;5.13;0.90;;;6.90;99.90;;;;;;7289656;19;20631;-80
2024/03/02 05:19:07;;;;;;;5.00;1.00;;;6.80;99.90;;;;;;7287605;19;20194;-79
2024/03/02 05:21:34;;;;;;;5.73;0.80;;;6.80;99.90;;;;;;7289986;19;20252;-79
2024/03/02 05:24:00;;;;;;;4.43;0.90;;;6.90;99.90;;;;;;7288102;19;20217;-80
2024/03/02 05:26:25;;;;;;;4.17;0.77;;;6.90;99.90;;;;;;7288296;19;20196;-78
2024/03/02 05:28:51;;;;;;;9.63;1.27;;;6.80;99.90;;;;;;7285481;19;20870;-78
2024/03/02 05:31:17;;;;;;;5.77;0.83;;;6.80;99.90;;;;;;7308485;19;20193;-78
2024/03/02 05:33:43;;;;;;;7.87;0.90;;;6.80;99.90;;;;;;7290064;19;20305;-78
2024/03/02 05:36:09;;;;;;;4.77;1.00;;;6.70;99.90;;;;;;7288059;19;20232;-78
2024/03/02 05:38:35;;;;;;;8.87;1.00;;;6.70;99.90;;;;;;7288703;19;20183;-78
2024/03/02 05:41:01;;;;;;;4.83;0.90;;;6.60;99.90;;;;;;7287574;19;20188;-78
2024/03/02 05:43:27;;;;;;;5.57;1.00;;;6.60;99.90;;;;;;7289719;19;20189;-78
2024/03/02 05:45:53;;;;;;;6.03;1.07;;;6.60;99.90;;;;;;7285631;19;20706;-78
2024/03/02 05:48:18;;;;;;;5.60;1.10;;;6.70;99.90;;;;;;7293132;19;20210;-79
2024/03/02 05:50:44;;;;;;;5.43;1.47;;;6.70;99.90;;;;;;7309068;19;20255;-78
2024/03/02 05:53:10;;;;;;;4.20;0.77;;;6.80;99.90;;;;;;7287798;19;20693;-78
2024/03/02 05:55:36;;;;;;;5.10;1.07;;;6.70;99.90;;;;;;7289533;19;20193;-79
2024/03/02 06:00:46;;;;;;;5.37;1.20;;;6.70;99.90;;;;;;7288625;19;20202;-78
2024/03/02 06:03:12;;;;;;;4.37;1.10;;;6.70;99.90;;;;;;7288396;19;20195;-78
2024/03/02 06:05:37;;;;;;;4.00;1.10;;;6.70;99.90;;;;;;7287768;19;20606;-78
2024/03/02 06:08:03;;;;;;;7.80;1.30;;;6.60;99.90;;;;;;7286691;19;20214;-78
2024/03/02 06:10:29;;;;;;;6.50;1.03;;;6.60;99.90;;;;;;7287928;19;20192;-78
2024/03/02 06:12:55;;;;;;;8.10;1.40;;;6.60;99.90;;;;;;7287335;19;20203;-78
2024/03/02 06:15:20;;;;;;;6.33;1.53;;;6.60;99.90;;;;;;7288424;19;20185;-77
2024/03/02 06:17:46;;;;;;;3.97;1.17;;;6.60;99.90;;;;;;7309535;19;20266;-77
2024/03/02 06:20:12;;;;;;;7.63;1.00;;;6.50;99.90;;;;;;7287383;19;20646;-77
2024/03/02 06:22:38;;;;;;;6.43;1.03;;;6.50;99.90;;;;;;7285552;19;20225;-77
2024/03/02 06:25:04;;;;;;;6.90;1.03;;;6.50;99.90;;;;;;7284284;19;20194;-77
2024/03/02 06:27:29;;;;;;;8.07;1.20;;;6.50;99.90;;;;;;7285385;19;20267;-77
2024/03/02 06:29:55;;;;;;;4.50;1.13;;;6.50;99.90;;;;;;7287877;19;20196;-78
2024/03/02 06:32:22;;;;;;;5.30;1.10;;;6.50;99.90;;;;;;7288622;19;20217;-78
2024/03/02 06:34:48;;;;;;;8.57;1.10;;;6.50;99.90;;;;;;7301949;19;20253;-77
2024/03/02 06:37:15;;;;;;;5.23;1.07;;;6.50;99.90;;;;;;7305595;19;20211;-79
2024/03/02 06:39:41;;;;;;;7.73;1.10;;;6.50;99.90;;;;;;7287282;19;20188;-79
2024/03/02 06:42:07;;;;;;;8.23;1.20;;;6.60;99.90;;;;;;7285682;19;20961;-78
2024/03/02 06:44:33;;;;;;;5.97;1.10;;;6.60;99.90;;;;;;7287982;19;20189;-79
2024/03/02 06:46:59;;;;;;;6.13;0.93;;;6.60;99.90;;;;;;7285010;19;20693;-79
2024/03/02 06:49:25;;;;;;;5.67;1.33;;;6.60;99.90;;;;;;7283763;19;20212;-79
2024/03/02 06:51:50;;;;;;;4.87;1.40;;;6.60;99.90;;;;;;7283880;19;20209;-78
2024/03/02 06:54:16;;;;;;;5.93;1.10;;;6.60;99.90;;;;;;7306878;19;20656;-79
2024/03/02 06:56:42;;;;;;;6.93;1.20;;;6.60;99.90;;;;;;7285107;19;20611;-78
2024/03/02 06:59:08;;;;;;;9.33;1.30;;;6.70;99.90;;;;;;7287022;19;20339;-78
2024/03/02 07:01:34;;;;;;;7.17;1.40;;;6.70;99.90;;;;;;7286213;19;20193;-79
2024/03/02 07:04:00;;;;;;;13.40;1.60;;;6.80;99.90;;;;;;7285149;19;20224;-79
2024/03/02 07:06:25;;;;;;;10.07;2.03;;;6.90;99.90;;;;;;7286022;19;20297;-79
2024/03/02 07:08:51;;;;;;;6.53;1.30;;;7.00;99.90;;;;;;7285244;19;20181;-80
2024/03/02 07:11:17;;;;;;;8.20;1.30;;;7.00;99.90;;;;;;7307199;19;20277;-82
2024/03/02 07:13:42;;;;;;;8.77;2.10;;;6.90;99.90;;;;;;7286783;19;20192;-78
2024/03/02 07:18:52;;;;;;;7.90;1.50;;;6.90;99.90;;;;;;7263772;19;20541;-77
2024/03/02 07:21:18;;;;;;;8.47;1.50;;;7.00;99.90;;;;;;7299795;19;20196;-77
2024/03/02 07:23:44;;;;;;;7.53;1.40;;;7.40;99.90;;;;;;7304819;19;20185;-78
2024/03/02 07:26:10;;;;;;;8.83;2.00;;;8.00;99.90;;;;;;7284735;19;20228;-78
2024/03/02 07:28:36;;;;;;;7.07;1.10;;;8.10;99.90;;;;;;7285352;19;20198;-80
2024/03/02 07:31:04;;;;;;;11.13;1.33;;;8.80;99.90;;;;;;7285268;19;20190;-78
2024/03/02 07:33:30;;;;;;;7.53;1.30;;;8.80;99.90;;;;;;7284836;19;20186;-80
2024/03/02 07:35:56;;;;;;;8.30;1.50;;;8.90;99.90;;;;;;7284809;19;20597;-79
2024/03/02 07:38:23;;;;;;;7.73;1.30;;;9.10;99.90;;;;;;7283533;19;20554;-78
2024/03/02 07:40:53;;;;;;;10.43;1.80;;;9.30;99.90;;;;;;7295903;19;20288;-79
2024/03/02 07:43:19;;;;;;;9.33;1.60;;;9.00;99.90;;;;;;7290938;19;20183;-78
2024/03/02 07:45:46;;;;;;;9.23;1.30;;;8.60;99.90;;;;;;7307650;19;20186;-79
2024/03/02 07:48:12;;;;;;;8.93;1.67;;;8.40;99.90;;;;;;7282051;19;20724;-79
2024/03/02 07:50:38;;;;;;;11.13;1.90;;;8.20;99.90;;;;;;7283781;19;20223;-79
2024/03/02 07:53:05;;;;;;;7.33;1.50;;;8.00;99.90;;;;;;7283020;19;20202;-78
2024/03/02 07:55:31;;;;;;;10.20;1.80;;;8.00;99.90;;;;;;7280559;19;20195;-79
2024/03/02 07:57:57;;;;;;;8.50;1.40;;;8.10;99.90;;;;;;7281288;19;20185;-78
2024/03/02 08:00:23;;;;;;;9.37;1.53;;;8.00;99.90;;;;;;7283911;19;20195;-78
2024/03/02 08:02:53;;;;;;;10.83;1.40;;;8.10;99.90;;;;;;7289864;19;20196;-78
2024/03/02 08:05:19;;;;;;;6.23;1.43;;;8.00;99.90;;;;;;7290402;19;20621;-78
2024/03/02 08:07:46;;;;;;;9.03;1.50;;;8.10;99.90;;;;;;7305750;19;20580;-78
2024/03/02 08:10:12;;;;;;;10.93;1.60;;;8.10;99.90;;;;;;7283022;19;20183;-79
2024/03/02 08:12:38;;;;;;;8.60;1.60;;;8.10;99.90;;;;;;7285172;19;20202;-79
2024/03/02 08:15:04;;;;;;;8.13;1.60;;;8.20;99.90;;;;;;7283839;19;20217;-78
2024/03/02 08:17:31;;;;;;;12.33;1.80;;;8.30;99.90;;;;;;7282780;19;20200;-79
2024/03/02 08:19:57;;;;;;;7.67;1.50;;;8.40;99.90;;;;;;7281191;19;20199;-77
2024/03/02 08:22:25;;;;;;;6.33;1.40;;;8.50;99.90;;;;;;7283299;19;20731;-79
2024/03/02 08:24:51;;;;;;;6.83;1.40;;;8.40;99.90;;;;;;7284447;19;20178;-80
2024/03/02 08:27:17;;;;;;;10.43;1.57;;;8.30;99.90;;;;;;7304363;19;20182;-78
2024/03/02 08:29:43;;;;;;;7.63;1.40;;;8.50;99.90;;;;;;7283783;19;20191;-80
2024/03/02 08:32:08;;;;;;;7.50;1.60;;;8.50;99.90;;;;;;7284182;19;20187;-79
2024/03/02 08:34:35;;;;;;;7.83;1.30;;;8.40;99.90;;;;;;7282962;19;20243;-79
2024/03/02 08:37:03;;;;;;;7.00;1.50;;;8.60;99.90;;;;;;7283152;19;20201;-79
2024/03/02 08:39:29;;;;;;;13.67;1.67;;;8.60;99.90;;;;;;7283226;19;20198;-81
2024/03/02 08:41:55;;;;;;;8.50;1.90;;;8.70;99.90;;;;;;7283913;19;20189;-79
2024/03/02 08:44:21;;;;;;;9.20;1.63;;;8.80;99.90;;;;;;7282490;19;20204;-79
2024/03/02 08:46:47;;;;;;;7.33;1.57;;;8.70;99.90;;;;;;7305326;19;20288;-79
2024/03/02 08:49:13;;;;;;;8.00;1.53;;;8.70;99.90;;;;;;7282315;19;20201;-79
2024/03/02 08:51:38;;;;;;;9.50;1.80;;;8.70;99.90;;;;;;7283875;19;20227;-79
2024/03/02 08:54:04;;;;;;;10.00;1.50;;;8.90;99.90;;;;;;7285267;19;20195;-79
2024/03/02 08:56:31;;;;;;;9.50;1.47;;;9.20;99.90;;;;;;7283442;19;20287;-80
2024/03/02 08:58:57;;;;;;;7.50;1.87;;;9.20;99.90;;;;;;7280465;19;20973;-79
2024/03/02 09:01:23;;;;;;;8.97;1.60;;;9.20;99.90;;;;;;7281931;19;20194;-80
2024/03/02 09:03:49;;;;;;;9.63;1.63;;;9.20;99.90;;;;;;7291787;19;20209;-79
2024/03/02 09:06:20;;;;;;;7.77;1.40;;;9.20;99.90;;;;;;7316414;19;20610;-79
2024/03/02 09:08:45;;;;;;;9.07;1.40;;;9.20;99.90;;;;;;7306342;19;20207;-80
2024/03/02 09:11:11;;;;;;;7.13;1.33;;;9.20;99.90;;;;;;7289694;19;20194;-78
2024/03/02 09:13:38;;;;;;;7.93;1.50;;;9.40;99.90;;;;;;7281854;19;20190;-80
2024/03/02 09:16:04;;;;;;;8.03;1.63;;;9.40;99.90;;;;;;7280670;19;20225;-80
2024/03/02 09:18:31;;;;;;;10.70;1.60;;;9.60;99.90;;;;;;7280956;19;20201;-80
2024/03/02 09:20:57;;;;;;;8.10;1.40;;;9.80;99.90;;;;;;7282082;19;20191;-80
2024/03/02 09:23:22;;;;;;;7.30;1.17;;;9.80;99.90;;;;;;7279830;19;20282;-80
2024/03/02 09:25:48;;;;;;;13.03;2.03;;;9.80;99.90;;;;;;7297333;19;20195;-80
2024/03/02 09:28:17;;;;;;;9.50;1.90;;;10.00;99.90;;;;;;7292018;19;20226;-80
2024/03/02 09:30:43;;;;;;;11.30;1.40;;;10.10;99.90;;;;;;7280933;19;20569;-80
2024/03/02 09:33:08;;;;;;;13.30;1.63;;;10.30;99.90;;;;;;7285870;19;20217;-79
2024/03/02 09:35:34;;;;;;;9.47;1.50;;;10.40;99.90;;;;;;7286674;19;20192;-81
2024/03/02 09:38:00;;;;;;;12.43;1.50;;;10.60;99.90;;;;;;7288706;19;20212;-80
2024/03/02 09:40:26;;;;;;;10.33;1.40;;;10.80;99.90;;;;;;7286662;19;20664;-79
2024/03/02 09:42:53;;;;;;;9.97;1.40;;;10.90;99.90;;;;;;7288411;19;20231;-80
2024/03/02 09:45:24;;;;;;;6.63;1.27;;;10.80;99.90;;;;;;7303848;19;20189;-79
2024/03/02 09:47:50;;;;;;;6.10;1.10;;;10.70;99.90;;;;;;7291428;19;20215;-79
2024/03/02 09:50:16;;;;;;;7.53;1.43;;;10.70;99.90;;;;;;7308136;19;20188;-79
2024/03/02 09:52:49;;;;;;;10.30;1.53;;;10.90;99.90;;;;;;7288189;19;20212;-80
2024/03/02 09:55:17;;;;;;;6.97;1.23;;;11.10;99.90;;;;;;7288129;19;20659;-79
2024/03/02 09:57:42;;;;;;;6.63;1.03;;;11.30;99.90;;;;;;7288164;19;20256;-80
2024/03/02 10:00:13;;;;;;;7.30;1.00;;;11.80;99.90;;;;;;7287283;19;20243;-79
2024/03/02 10:02:41;;;;;;;5.50;0.93;;;12.20;99.90;;;;;;7287080;19;20299;-79
2024/03/02 10:05:08;;;;;;;11.10;1.50;;;12.00;99.90;;;;;;7288136;19;20192;-79
2024/03/02 10:07:34;;;;;;;8.90;1.30;;;12.10;99.90;;;;;;7287530;19;20193;-79
2024/03/02 10:10:15;;;;;;;10.10;1.50;;;11.90;99.90;;;;;;7288128;19;20554;-80
2024/03/02 10:12:41;;;;;;;10.50;1.30;;;12.00;99.90;;;;;;7287255;19;20212;-79
2024/03/02 10:15:09;;;;;;;8.63;1.13;;;12.20;99.90;;;;;;7287839;19;20362;-79
2024/03/02 10:17:35;;;;;;;9.23;1.17;;;12.40;99.90;;;;;;7288463;19;20201;-79
2024/03/02 10:20:28;;;;;;;7.83;1.10;;;12.40;99.90;;;;;;7288294;19;20652;-80
2024/03/02 10:23:09;;;;;;;7.80;1.60;;;13.00;99.90;;;;;;7185416;19;2004605;-79
2024/03/02 10:25:35;;;;;;;6.50;1.10;;;13.90;99.90;;;;;;7287101;19;20193;-79
2024/03/02 10:28:01;;;;;;;9.93;1.63;;;14.20;99.90;;;;;;7287105;19;20200;-79
2024/03/02 10:30:27;;;;;;;6.63;1.03;;;14.10;99.90;;;;;;7287038;19;20193;-79
2024/03/02 10:32:56;;;;;;;11.53;1.60;;;13.90;99.90;;;;;;7287611;19;20270;-79
2024/03/02 10:35:23;;;;;;;8.40;1.20;;;13.90;99.90;;;;;;7284573;19;20189;-79
2024/03/02 10:37:50;;;;;;;8.07;1.10;;;14.30;99.90;;;;;;7302677;19;20191;-79
2024/03/02 10:40:16;;;;;;;12.33;1.57;;;14.50;99.90;;;;;;7310416;19;20305;-79
2024/03/02 10:42:42;;;;;;;8.13;1.40;;;14.00;99.90;;;;;;7285076;19;20195;-79
2024/03/02 10:45:13;;;;;;;11.17;1.33;;;13.40;99.90;;;;;;7286227;19;20962;-80
2024/03/02 10:47:38;;;;;;;7.97;1.40;;;12.90;99.90;;;;;;7287171;19;20329;-78
2024/03/02 10:50:11;;;;;;;7.33;1.23;;;12.90;99.90;;;;;;7287261;19;20181;-79
2024/03/02 10:52:38;;;;;;;11.90;1.47;;;12.80;99.90;;;;;;7286541;19;20202;-79
2024/03/02 10:55:05;;;;;;;11.47;2.00;;;12.60;99.90;;;;;;7285990;19;20206;-79
2024/03/02 10:57:51;;;;;;;8.63;1.17;;;12.50;99.90;;;;;;7285607;19;20658;-78
2024/03/02 11:00:19;;;;;;;7.57;1.57;;;12.40;99.90;;;;;;7285853;19;20200;-80
2024/03/02 11:02:56;;;;;;;13.57;1.53;;;12.50;99.90;;;;;;7286118;19;20263;-78
2024/03/02 11:05:31;;;;;;;10.10;1.60;;;12.50;99.90;;;;;;7265271;19;20192;-78
2024/03/02 11:08:11;;;;;;;9.73;1.50;;;12.60;99.90;;;;;;7289789;19;20293;-79
2024/03/02 11:11:03;;;;;;;10.53;1.60;;;12.70;99.90;;;;;;7285682;19;20194;-79
2024/03/02 11:13:33;;;;;;;9.50;1.30;;;12.50;99.90;;;;;;7184589;19;2004611;-79
2024/03/02 11:16:09;;;;;;;9.47;1.33;;;12.70;99.90;;;;;;7285356;19;20670;-79
2024/03/02 11:18:36;;;;;;;10.57;1.33;;;13.00;99.90;;;;;;7286390;19;20206;-79
2024/03/02 11:21:03;;;;;;;10.03;1.20;;;12.90;99.90;;;;;;7285222;19;20218;-79
2024/03/02 11:23:33;;;;;;;13.60;1.60;;;12.60;99.90;;;;;;7285173;19;20190;-79
2024/03/02 11:26:19;;;;;;;11.73;1.40;;;12.80;99.90;;;;;;7283862;19;20198;-78
2024/03/02 11:28:45;;;;;;;8.20;1.37;;;12.60;99.90;;;;;;7285256;19;20213;-78
2024/03/02 11:31:11;;;;;;;7.23;1.53;;;12.50;99.90;;;;;;7285287;19;20732;-79
2024/03/02 11:33:36;;;;;;;9.17;1.77;;;12.60;99.90;;;;;;7283667;19;20213;-79
2024/03/02 11:36:03;;;;;;;10.37;1.50;;;12.70;99.90;;;;;;7283440;19;20193;-78
2024/03/02 11:38:32;;;;;;;8.00;1.20;;;12.90;99.90;;;;;;7279931;19;20187;-81
2024/03/02 11:40:59;;;;;;;7.87;1.30;;;12.80;99.90;;;;;;7284818;19;20229;-78
2024/03/02 11:43:28;;;;;;;7.17;1.30;;;12.80;99.90;;;;;;7285363;19;20189;-79
2024/03/02 11:46:12;;;;;;;8.33;1.50;;;13.00;99.90;;;;;;7284311;19;20182;-78
2024/03/02 11:48:39;;;;;;;9.33;1.50;;;13.40;99.90;;;;;;7284180;19;20189;-79
2024/03/02 11:51:05;;;;;;;9.97;1.40;;;14.20;99.90;;;;;;7283497;19;20187;-79
2024/03/02 11:53:32;;;;;;;6.63;1.20;;;14.60;99.90;;;;;;7285217;19;20661;-80
2024/03/02 11:55:58;;;;;;;8.10;1.07;;;14.50;99.90;;;;;;7284822;19;20596;-79
2024/03/02 11:58:26;;;;;;;7.37;1.00;;;14.60;99.90;;;;;;7287847;19;20188;-79
2024/03/02 12:00:55;;;;;;;7.87;1.13;;;14.30;99.90;;;;;;7283056;19;20190;-79
2024/03/02 12:03:25;;;;;;;5.17;0.90;;;14.00;99.90;;;;;;7283920;19;20186;-79
2024/03/02 12:05:54;;;;;;;7.60;1.30;;;13.50;99.90;;;;;;7283644;19;20261;-79
2024/03/02 12:08:21;;;;;;;5.20;0.90;;;13.50;99.90;;;;;;7287009;19;20239;-79
2024/03/02 12:11:00;;;;;;;10.67;1.23;;;13.40;99.90;;;;;;7306221;19;20252;-79
2024/03/02 12:13:26;;;;;;;7.60;0.80;;;13.30;99.90;;;;;;7181851;19;2004516;-79
2024/03/02 12:15:58;;;;;;;6.43;1.00;;;13.50;99.90;;;;;;7281888;19;20193;-79
2024/03/02 12:18:25;;;;;;;7.60;1.10;;;13.70;99.90;;;;;;7284123;19;20220;-78
2024/03/02 12:21:02;;;;;;;7.13;1.00;;;13.70;99.90;;;;;;7284290;19;20643;-78
2024/03/02 12:23:28;;;;;;;6.00;1.00;;;14.20;99.90;;;;;;7283974;19;20186;-78
2024/03/02 12:25:54;;;;;;;4.40;1.10;;;14.30;99.90;;;;;;7283007;19;20276;-79
2024/03/02 12:28:20;;;;;;;5.60;0.90;;;14.40;99.90;;;;;;7293993;19;20222;-78
2024/03/02 12:30:47;;;;;;;5.60;0.90;;;14.30;99.90;;;;;;7306003;19;20182;-78
2024/03/02 12:33:13;;;;;;;6.93;0.87;;;14.00;99.90;;;;;;7283771;19;20241;-79
2024/03/02 12:35:40;;;;;;;5.23;0.70;;;14.20;99.90;;;;;;7282204;19;20206;-79
2024/03/02 12:38:05;;;;;;;3.70;0.77;;;14.40;99.90;;;;;;7283472;19;20656;-78
2024/03/02 12:40:31;;;;;;;4.70;0.77;;;14.30;99.90;;;;;;7282066;19;20188;-78
2024/03/02 12:42:57;;;;;;;5.53;1.40;;;14.20;99.90;;;;;;7281561;19;20195;-79
2024/03/02 12:45:26;;;;;;;6.60;1.03;;;14.00;99.90;;;;;;7283191;19;20190;-79
2024/03/02 12:47:52;;;;;;;5.13;0.77;;;14.10;99.90;;;;;;7281487;19;20199;-79
2024/03/02 12:50:18;;;;;;;3.83;0.80;;;14.00;99.90;;;;;;7302829;19;20181;-79
2024/03/02 12:52:51;;;;;;;7.33;0.90;;;13.90;99.90;;;;;;7282150;19;20210;-79
2024/03/02 12:55:17;;;;;;;3.97;0.93;;;13.80;99.90;;;;;;7282321;19;20190;-79
2024/03/02 12:57:44;;;;;;;5.43;1.30;;;13.90;99.90;;;;;;7281310;19;20710;-79
2024/03/02 13:00:11;;;;;;;4.60;1.10;;;14.00;99.90;;;;;;7282289;19;20199;-80